Red Canyon, Utah
Current Conditions -  °F | °C
As of 8:53 AM on Sunday 23 Nov 2014 (Local Time) from KBCE Reporting Station
Clear Clear  
Wind Chill: 10°   Ceiling: Unl
Heat Index: 24°   Visibility: 10mi
Dew Point: 10°   Wind: 20mph
Humidity: 55%   Direction: 310°NW
Pressure: 30.11"   Gusts: 26mph
Location:  37.74°N, 112.34°W
Report Text: KBCE 231553Z AUTO 31017G23KT 10SM CLR M04/M12 A3011 RMK AO2 SLP164 T10441122
Loading
Personal Weather Stations






























Interactive Weather Map New forecast layout! Learn more

10-Day Weather Forecast

Advertisements
Track Severe Weather on mobile